sensor_id;sensor_type;location;lat;lon;timestamp;pressure;altitude;pressure_sealevel;temperature;humidity
8573;BME280;4324;42.012;24.872;2023-05-23T00:01:12;98586.94;;;17.06;75.42
8573;BME280;4324;42.012;24.872;2023-05-23T00:03:42;98623.19;;;17.27;75.25
8573;BME280;4324;42.012;24.872;2023-05-23T00:06:09;98625.84;;;17.27;75.23
8573;BME280;4324;42.012;24.872;2023-05-23T00:08:36;98625.84;;;17.27;74.94
8573;BME280;4324;42.012;24.872;2023-05-23T00:11:03;98601.50;;;17.10;75.00
8573;BME280;4324;42.012;24.872;2023-05-23T00:13:30;98529.84;;;16.62;75.07
8573;BME280;4324;42.012;24.872;2023-05-23T00:15:59;98610.75;;;17.14;75.26
8573;BME280;4324;42.012;24.872;2023-05-23T00:18:26;98607.88;;;17.09;75.34
8573;BME280;4324;42.012;24.872;2023-05-23T00:20:56;98615.47;;;17.12;75.35
8573;BME280;4324;42.012;24.872;2023-05-23T00:23:23;98622.44;;;17.13;75.42
8573;BME280;4324;42.012;24.872;2023-05-23T00:25:50;98622.44;;;17.13;75.21
8573;BME280;4324;42.012;24.872;2023-05-23T00:28:18;98594.00;;;16.93;75.35
8573;BME280;4324;42.012;24.872;2023-05-23T00:30:46;98595.00;;;16.99;75.34
8573;BME280;4324;42.012;24.872;2023-05-23T00:33:13;98531.31;;;16.58;75.85
8573;BME280;4324;42.012;24.872;2023-05-23T00:35:41;98607.88;;;17.09;75.97
8573;BME280;4324;42.012;24.872;2023-05-23T00:38:09;98607.72;;;17.04;76.26
8573;BME280;4324;42.012;24.872;2023-05-23T00:40:37;98600.78;;;16.96;76.55
8573;BME280;4324;42.012;24.872;2023-05-23T00:43:04;98613.69;;;17.06;76.80
8573;BME280;4324;42.012;24.872;2023-05-23T00:45:30;98596.25;;;16.97;77.23
8573;BME280;4324;42.012;24.872;2023-05-23T00:47:58;98599.94;;;17.02;77.46
8573;BME280;4324;42.012;24.872;2023-05-23T00:50:26;98609.34;;;17.05;77.83
8573;BME280;4324;42.012;24.872;2023-05-23T00:52:56;98597.88;;;16.98;77.98
8573;BME280;4324;42.012;24.872;2023-05-23T00:55:27;98602.38;;;17.04;77.95
8573;BME280;4324;42.012;24.872;2023-05-23T00:57:55;98565.56;;;16.74;78.21
8573;BME280;4324;42.012;24.872;2023-05-23T01:00:24;98588.47;;;16.95;78.13
8573;BME280;4324;42.012;24.872;2023-05-23T01:02:51;98588.50;;;16.88;77.66
8573;BME280;4324;42.012;24.872;2023-05-23T01:05:19;98590.31;;;16.95;77.55
8573;BME280;4324;42.012;24.872;2023-05-23T01:07:50;98591.28;;;17.00;77.15
8573;BME280;4324;42.012;24.872;2023-05-23T01:10:18;98592.06;;;17.07;77.01
8573;BME280;4324;42.012;24.872;2023-05-23T01:13:02;98599.28;;;17.07;77.16
8573;BME280;4324;42.012;24.872;2023-05-23T01:15:37;98539.63;;;16.75;77.20
8573;BME280;4324;42.012;24.872;2023-05-23T01:18:09;98598.22;;;17.08;77.42
8573;BME280;4324;42.012;24.872;2023-05-23T01:20:42;98588.75;;;17.05;77.79
8573;BME280;4324;42.012;24.872;2023-05-23T01:23:35;98596.41;;;17.02;78.40
8573;BME280;4324;42.012;24.872;2023-05-23T01:26:16;98565.91;;;16.84;78.36
8573;BME280;4324;42.012;24.872;2023-05-23T01:28:49;98540.56;;;16.55;78.33
8573;BME280;4324;42.012;24.872;2023-05-23T01:31:18;98594.66;;;16.89;78.70
8573;BME280;4324;42.012;24.872;2023-05-23T01:33:48;98609.06;;;16.88;78.25
8573;BME280;4324;42.012;24.872;2023-05-23T01:36:18;98559.63;;;16.65;77.75
8573;BME280;4324;42.012;24.872;2023-05-23T01:38:46;98595.75;;;16.81;77.51
8573;BME280;4324;42.012;24.872;2023-05-23T01:41:13;98599.00;;;16.83;77.42
8573;BME280;4324;42.012;24.872;2023-05-23T01:43:41;98601.69;;;16.83;77.37
8573;BME280;4324;42.012;24.872;2023-05-23T01:46:10;98594.50;;;16.84;77.40
8573;BME280;4324;42.012;24.872;2023-05-23T01:48:38;98595.75;;;16.81;77.11
8573;BME280;4324;42.012;24.872;2023-05-23T01:51:05;98586.91;;;16.81;77.11
8573;BME280;4324;42.012;24.872;2023-05-23T01:53:34;98601.09;;;16.81;77.10
8573;BME280;4324;42.012;24.872;2023-05-23T01:56:02;98583.22;;;16.68;77.43
8573;BME280;4324;42.012;24.872;2023-05-23T01:58:30;98569.66;;;16.70;77.93
8573;BME280;4324;42.012;24.872;2023-05-23T02:00:57;98580.75;;;16.80;77.95
8573;BME280;4324;42.012;24.872;2023-05-23T02:03:27;98531.38;;;16.44;77.92
8573;BME280;4324;42.012;24.872;2023-05-23T02:05:54;98564.97;;;16.65;77.96
8573;BME280;4324;42.012;24.872;2023-05-23T02:08:22;98569.28;;;16.66;77.88
8573;BME280;4324;42.012;24.872;2023-05-23T02:10:52;98490.03;;;16.15;78.10
8573;BME280;4324;42.012;24.872;2023-05-23T02:13:19;98573.16;;;16.70;78.43
8573;BME280;4324;42.012;24.872;2023-05-23T02:15:47;98576.50;;;16.66;78.92
8573;BME280;4324;42.012;24.872;2023-05-23T02:18:14;98579.59;;;16.63;78.85
8573;BME280;4324;42.012;24.872;2023-05-23T02:20:44;98535.78;;;16.32;78.88
8573;BME280;4324;42.012;24.872;2023-05-23T02:23:11;98580.44;;;16.57;79.13
8573;BME280;4324;42.012;24.872;2023-05-23T02:25:39;98580.03;;;16.53;79.46
8573;BME280;4324;42.012;24.872;2023-05-23T02:28:07;98567.34;;;16.42;79.22
8573;BME280;4324;42.012;24.872;2023-05-23T02:30:34;98582.13;;;16.51;79.52
8573;BME280;4324;42.012;24.872;2023-05-23T02:33:04;98574.75;;;16.47;79.32
8573;BME280;4324;42.012;24.872;2023-05-23T02:35:31;98569.63;;;16.38;79.79
8573;BME280;4324;42.012;24.872;2023-05-23T02:38:00;98580.91;;;16.47;79.83
8573;BME280;4324;42.012;24.872;2023-05-23T02:40:27;98565.34;;;16.37;79.96
8573;BME280;4324;42.012;24.872;2023-05-23T02:42:55;98558.41;;;16.23;80.37
8573;BME280;4324;42.012;24.872;2023-05-23T02:45:22;98586.94;;;16.36;80.35
8573;BME280;4324;42.012;24.872;2023-05-23T02:47:52;98580.16;;;16.33;80.39
8573;BME280;4324;42.012;24.872;2023-05-23T02:50:19;98583.88;;;16.32;80.52
8573;BME280;4324;42.012;24.872;2023-05-23T02:52:46;98581.19;;;16.32;80.32
8573;BME280;4324;42.012;24.872;2023-05-23T02:55:15;98530.81;;;15.97;79.88
8573;BME280;4324;42.012;24.872;2023-05-23T02:57:42;98584.28;;;16.29;80.31
8573;BME280;4324;42.012;24.872;2023-05-23T03:00:11;98569.53;;;16.20;80.82
8573;BME280;4324;42.012;24.872;2023-05-23T03:02:39;98574.03;;;16.26;80.82
8573;BME280;4324;42.012;24.872;2023-05-23T03:05:07;98532.00;;;16.02;81.08
8573;BME280;4324;42.012;24.872;2023-05-23T03:07:34;98569.09;;;16.30;81.03
8573;BME280;4324;42.012;24.872;2023-05-23T03:10:04;98557.84;;;16.21;81.30
8573;BME280;4324;42.012;24.872;2023-05-23T03:12:33;98523.00;;;16.03;81.04
8573;BME280;4324;42.012;24.872;2023-05-23T03:15:01;98572.97;;;16.34;81.14
8573;BME280;4324;42.012;24.872;2023-05-23T03:17:28;98556.97;;;16.27;81.22
8573;BME280;4324;42.012;24.872;2023-05-23T03:19:55;98560.91;;;16.25;81.01
8573;BME280;4324;42.012;24.872;2023-05-23T03:22:22;98573.97;;;16.39;81.62
8573;BME280;4324;42.012;24.872;2023-05-23T03:24:50;98576.66;;;16.39;81.40
8573;BME280;4324;42.012;24.872;2023-05-23T03:27:17;98529.13;;;16.10;81.32
8573;BME280;4324;42.012;24.872;2023-05-23T03:29:46;98573.19;;;16.32;81.39
8573;BME280;4324;42.012;24.872;2023-05-23T03:32:13;98542.88;;;16.13;81.61
8573;BME280;4324;42.012;24.872;2023-05-23T03:34:44;98587.94;;;16.35;81.78
8573;BME280;4324;42.012;24.872;2023-05-23T03:37:11;98578.53;;;16.32;81.66
8573;BME280;4324;42.012;24.872;2023-05-23T03:39:39;98573.59;;;16.29;81.82
8573;BME280;4324;42.012;24.872;2023-05-23T03:42:06;98524.00;;;16.02;81.55
8573;BME280;4324;42.012;24.872;2023-05-23T03:44:33;98587.75;;;16.36;81.44
8573;BME280;4324;42.012;24.872;2023-05-23T03:47:01;98584.47;;;16.34;81.48
8573;BME280;4324;42.012;24.872;2023-05-23T03:49:28;98585.28;;;16.35;81.65
8573;BME280;4324;42.012;24.872;2023-05-23T03:51:55;98594.31;;;16.40;81.86
8573;BME280;4324;42.012;24.872;2023-05-23T03:54:21;98545.72;;;16.18;81.38
8573;BME280;4324;42.012;24.872;2023-05-23T03:56:48;98593.59;;;16.58;81.34
8573;BME280;4324;42.012;24.872;2023-05-23T03:59:16;98591.91;;;16.64;81.19
8573;BME280;4324;42.012;24.872;2023-05-23T04:01:43;98578.72;;;16.69;80.70
8573;BME280;4324;42.012;24.872;2023-05-23T04:04:11;98591.38;;;16.87;80.09
8573;BME280;4324;42.012;24.872;2023-05-23T04:06:38;98582.34;;;16.88;80.04
8573;BME280;4324;42.012;24.872;2023-05-23T04:09:05;98583.50;;;16.99;79.86
8573;BME280;4324;42.012;24.872;2023-05-23T04:11:33;98606.88;;;17.10;79.43
8573;BME280;4324;42.012;24.872;2023-05-23T04:14:00;98606.19;;;17.14;79.46
8573;BME280;4324;42.012;24.872;2023-05-23T04:16:27;98579.34;;;17.03;79.23
8573;BME280;4324;42.012;24.872;2023-05-23T04:18:57;98592.44;;;17.11;79.27
8573;BME280;4324;42.012;24.872;2023-05-23T04:21:25;98601.78;;;17.27;79.08
8573;BME280;4324;42.012;24.872;2023-05-23T04:23:52;98611.19;;;17.36;79.03
8573;BME280;4324;42.012;24.872;2023-05-23T04:26:20;98556.81;;;17.17;78.56
8573;BME280;4324;42.012;24.872;2023-05-23T04:28:47;98596.69;;;17.44;78.36
8573;BME280;4324;42.012;24.872;2023-05-23T04:31:14;98590.91;;;17.47;78.08
8573;BME280;4324;42.012;24.872;2023-05-23T04:33:41;98601.91;;;17.57;78.14
8573;BME280;4324;42.012;24.872;2023-05-23T04:36:08;98596.28;;;17.65;77.86
8573;BME280;4324;42.012;24.872;2023-05-23T04:38:36;98588.78;;;17.74;77.70
8573;BME280;4324;42.012;24.872;2023-05-23T04:41:05;98586.06;;;17.80;77.53
8573;BME280;4324;42.012;24.872;2023-05-23T04:43:34;98598.25;;;17.95;77.18
8573;BME280;4324;42.012;24.872;2023-05-23T04:46:01;98564.53;;;17.87;76.83
8573;BME280;4324;42.012;24.872;2023-05-23T04:48:30;98609.31;;;18.17;76.48
8573;BME280;4324;42.012;24.872;2023-05-23T04:50:59;98606.00;;;18.21;76.22
8573;BME280;4324;42.012;24.872;2023-05-23T04:53:26;98594.28;;;18.16;76.28
8573;BME280;4324;42.012;24.872;2023-05-23T04:55:55;98575.84;;;18.07;76.06
8573;BME280;4324;42.012;24.872;2023-05-23T04:58:22;98609.25;;;18.23;75.84
8573;BME280;4324;42.012;24.872;2023-05-23T05:00:49;98598.03;;;18.14;75.57
8573;BME280;4324;42.012;24.872;2023-05-23T05:03:15;98619.41;;;18.21;75.57
8573;BME280;4324;42.012;24.872;2023-05-23T05:05:43;98595.72;;;18.18;75.45
8573;BME280;4324;42.012;24.872;2023-05-23T05:08:12;98609.03;;;18.25;75.38
8573;BME280;4324;42.012;24.872;2023-05-23T05:10:39;98556.97;;;18.02;74.91
8573;BME280;4324;42.012;24.872;2023-05-23T05:13:08;98608.66;;;18.40;74.95
8573;BME280;4324;42.012;24.872;2023-05-23T05:15:35;98637.94;;;18.53;74.93
8573;BME280;4324;42.012;24.872;2023-05-23T05:18:02;98603.13;;;18.34;74.82
8573;BME280;4324;42.012;24.872;2023-05-23T05:20:29;98529.66;;;17.94;74.69
8573;BME280;4324;42.012;24.872;2023-05-23T05:22:56;98535.63;;;17.96;74.52
8573;BME280;4324;42.012;24.872;2023-05-23T05:25:23;98635.47;;;18.70;74.58
8573;BME280;4324;42.012;24.872;2023-05-23T05:27:51;98622.50;;;18.67;74.32
8573;BME280;4324;42.012;24.872;2023-05-23T05:30:21;98629.81;;;18.78;74.34
8573;BME280;4324;42.012;24.872;2023-05-23T05:32:48;98641.38;;;18.90;74.18
8573;BME280;4324;42.012;24.872;2023-05-23T05:35:18;98640.84;;;19.00;73.78
8573;BME280;4324;42.012;24.872;2023-05-23T05:37:45;98641.56;;;19.07;73.65
8573;BME280;4324;42.012;24.872;2023-05-23T05:40:12;98646.59;;;19.15;73.43
8573;BME280;4324;42.012;24.872;2023-05-23T05:42:39;98639.84;;;19.24;72.86
8573;BME280;4324;42.012;24.872;2023-05-23T05:45:06;98644.28;;;19.30;72.85
8573;BME280;4324;42.012;24.872;2023-05-23T05:47:35;98617.91;;;19.27;72.64
8573;BME280;4324;42.012;24.872;2023-05-23T05:50:03;98629.13;;;19.48;72.31
8573;BME280;4324;42.012;24.872;2023-05-23T05:52:31;98641.31;;;19.62;72.04
8573;BME280;4324;42.012;24.872;2023-05-23T05:54:59;98652.44;;;19.66;71.79
8573;BME280;4324;42.012;24.872;2023-05-23T05:57:25;98646.00;;;19.67;71.51
8573;BME280;4324;42.012;24.872;2023-05-23T05:59:52;98643.31;;;19.67;71.53
8573;BME280;4324;42.012;24.872;2023-05-23T06:02:19;98653.34;;;19.71;71.47
8573;BME280;4324;42.012;24.872;2023-05-23T06:04:47;98655.22;;;19.71;71.22
8573;BME280;4324;42.012;24.872;2023-05-23T06:07:14;98652.88;;;19.74;71.15
8573;BME280;4324;42.012;24.872;2023-05-23T06:09:42;98652.97;;;19.79;71.09
8573;BME280;4324;42.012;24.872;2023-05-23T06:12:09;98644.34;;;19.77;70.86
8573;BME280;4324;42.012;24.872;2023-05-23T06:14:37;98637.22;;;19.71;70.89
8573;BME280;4324;42.012;24.872;2023-05-23T06:17:05;98635.59;;;19.70;70.85
8573;BME280;4324;42.012;24.872;2023-05-23T06:19:34;98626.25;;;19.73;70.68
8573;BME280;4324;42.012;24.872;2023-05-23T06:22:04;98643.75;;;19.87;70.67
8573;BME280;4324;42.012;24.872;2023-05-23T06:24:31;98654.38;;;19.94;70.46
8573;BME280;4324;42.012;24.872;2023-05-23T06:26:58;98613.50;;;19.68;70.64
8573;BME280;4324;42.012;24.872;2023-05-23T06:29:25;98642.81;;;19.93;70.43
8573;BME280;4324;42.012;24.872;2023-05-23T06:31:52;98643.97;;;20.09;70.24
8573;BME280;4324;42.012;24.872;2023-05-23T06:34:19;98661.78;;;20.39;69.83
8573;BME280;4324;42.012;24.872;2023-05-23T06:36:46;98640.94;;;20.46;69.50
8573;BME280;4324;42.012;24.872;2023-05-23T06:39:17;98649.34;;;20.61;69.15
8573;BME280;4324;42.012;24.872;2023-05-23T06:41:45;98658.47;;;20.60;69.13
8573;BME280;4324;42.012;24.872;2023-05-23T06:44:12;98631.59;;;20.48;69.16
8573;BME280;4324;42.012;24.872;2023-05-23T06:46:41;98648.09;;;20.52;69.06
8573;BME280;4324;42.012;24.872;2023-05-23T06:49:08;98641.41;;;20.43;69.09
8573;BME280;4324;42.012;24.872;2023-05-23T06:51:35;98625.78;;;20.40;69.29
8573;BME280;4324;42.012;24.872;2023-05-23T06:54:02;98633.47;;;20.48;69.29
8573;BME280;4324;42.012;24.872;2023-05-23T06:56:30;98630.44;;;20.56;69.33
8573;BME280;4324;42.012;24.872;2023-05-23T06:58:57;98639.13;;;20.75;68.99
8573;BME280;4324;42.012;24.872;2023-05-23T07:01:25;98640.94;;;20.86;68.95
8573;BME280;4324;42.012;24.872;2023-05-23T07:03:52;98633.13;;;21.01;68.74
8573;BME280;4324;42.012;24.872;2023-05-23T07:06:19;98635.75;;;21.13;68.39
8573;BME280;4324;42.012;24.872;2023-05-23T07:08:46;98592.69;;;20.96;68.17
8573;BME280;4324;42.012;24.872;2023-05-23T07:11:13;98615.38;;;21.17;68.20
8573;BME280;4324;42.012;24.872;2023-05-23T07:13:46;98630.44;;;21.47;67.81
8573;BME280;4324;42.012;24.872;2023-05-23T07:16:13;98620.88;;;21.56;67.65
8573;BME280;4324;42.012;24.872;2023-05-23T07:18:40;98625.88;;;21.86;66.90
8573;BME280;4324;42.012;24.872;2023-05-23T07:21:09;98631.63;;;22.12;66.28
8573;BME280;4324;42.012;24.872;2023-05-23T07:23:36;98616.91;;;22.19;65.81
8573;BME280;4324;42.012;24.872;2023-05-23T07:26:03;98622.88;;;22.43;65.30
8573;BME280;4324;42.012;24.872;2023-05-23T07:28:30;98622.97;;;22.54;64.78
8573;BME280;4324;42.012;24.872;2023-05-23T07:30:58;98602.72;;;22.51;64.57
8573;BME280;4324;42.012;24.872;2023-05-23T07:33:25;98621.84;;;22.77;64.28
8573;BME280;4324;42.012;24.872;2023-05-23T07:35:52;98616.41;;;22.93;63.80
8573;BME280;4324;42.012;24.872;2023-05-23T07:38:19;98603.81;;;23.04;63.31
8573;BME280;4324;42.012;24.872;2023-05-23T07:40:46;98609.66;;;23.28;62.49
8573;BME280;4324;42.012;24.872;2023-05-23T07:43:13;98623.00;;;23.40;62.27
8573;BME280;4324;42.012;24.872;2023-05-23T07:45:40;98597.00;;;23.29;62.10
8573;BME280;4324;42.012;24.872;2023-05-23T07:48:09;98604.03;;;23.35;61.98
8573;BME280;4324;42.012;24.872;2023-05-23T07:50:38;98599.16;;;23.32;61.96
8573;BME280;4324;42.012;24.872;2023-05-23T07:53:05;98607.34;;;23.42;61.79
8573;BME280;4324;42.012;24.872;2023-05-23T07:55:32;98576.66;;;23.21;61.81
8573;BME280;4324;42.012;24.872;2023-05-23T07:57:59;98599.81;;;23.44;61.30
8573;BME280;4324;42.012;24.872;2023-05-23T08:00:26;98611.06;;;23.68;61.15
8573;BME280;4324;42.012;24.872;2023-05-23T08:02:53;98615.44;;;23.74;60.35
8573;BME280;4324;42.012;24.872;2023-05-23T08:05:21;98603.75;;;23.69;60.09
8573;BME280;4324;42.012;24.872;2023-05-23T08:07:48;98576.91;;;23.57;60.12
8573;BME280;4324;42.012;24.872;2023-05-23T08:10:15;98610.03;;;23.79;59.89
8573;BME280;4324;42.012;24.872;2023-05-23T08:12:42;98615.75;;;23.83;59.23
8573;BME280;4324;42.012;24.872;2023-05-23T08:15:09;98603.81;;;23.74;58.97
8573;BME280;4324;42.012;24.872;2023-05-23T08:17:36;98615.72;;;23.78;59.29
8573;BME280;4324;42.012;24.872;2023-05-23T08:20:03;98612.75;;;23.79;58.88
8573;BME280;4324;42.012;24.872;2023-05-23T08:22:33;98599.81;;;23.81;58.57
8573;BME280;4324;42.012;24.872;2023-05-23T08:25:00;98610.13;;;23.95;58.35
8573;BME280;4324;42.012;24.872;2023-05-23T08:27:27;98606.38;;;24.01;58.28
8573;BME280;4324;42.012;24.872;2023-05-23T08:29:54;98583.41;;;24.03;57.56
8573;BME280;4324;42.012;24.872;2023-05-23T08:32:21;98560.13;;;24.02;57.10
8573;BME280;4324;42.012;24.872;2023-05-23T08:34:48;98565.00;;;24.00;56.30
8573;BME280;4324;42.012;24.872;2023-05-23T08:37:15;98609.44;;;24.20;56.03
8573;BME280;4324;42.012;24.872;2023-05-23T08:39:43;98610.53;;;24.24;56.39
8573;BME280;4324;42.012;24.872;2023-05-23T08:42:10;98597.66;;;24.41;56.26
8573;BME280;4324;42.012;24.872;2023-05-23T08:44:37;98612.31;;;24.66;55.60
8573;BME280;4324;42.012;24.872;2023-05-23T08:47:09;98594.47;;;24.75;55.27
8573;BME280;4324;42.012;24.872;2023-05-23T08:49:41;98591.22;;;24.88;55.21
8573;BME280;4324;42.012;24.872;2023-05-23T08:52:11;98604.25;;;25.01;54.79
8573;BME280;4324;42.012;24.872;2023-05-23T08:54:38;98587.75;;;25.13;54.67
8573;BME280;4324;42.012;24.872;2023-05-23T08:57:08;98602.41;;;25.48;54.51
8573;BME280;4324;42.012;24.872;2023-05-23T08:59:35;98605.31;;;25.72;53.83
8573;BME280;4324;42.012;24.872;2023-05-23T09:02:07;98611.84;;;25.86;53.55
8573;BME280;4324;42.012;24.872;2023-05-23T09:04:36;98594.50;;;25.82;53.19
8573;BME280;4324;42.012;24.872;2023-05-23T09:07:03;98599.34;;;25.90;52.78
8573;BME280;4324;42.012;24.872;2023-05-23T09:09:31;98613.41;;;26.02;53.07
8573;BME280;4324;42.012;24.872;2023-05-23T09:11:58;98596.00;;;26.14;52.43
8573;BME280;4324;42.012;24.872;2023-05-23T09:14:26;98606.78;;;26.34;52.41
8573;BME280;4324;42.012;24.872;2023-05-23T09:16:59;98596.91;;;26.53;51.88
8573;BME280;4324;42.012;24.872;2023-05-23T09:19:27;98588.44;;;26.65;51.72
8573;BME280;4324;42.012;24.872;2023-05-23T09:21:54;98562.13;;;26.61;51.21
8573;BME280;4324;42.012;24.872;2023-05-23T09:24:21;98594.91;;;26.69;50.73
8573;BME280;4324;42.012;24.872;2023-05-23T09:26:48;98590.13;;;26.56;50.45
8573;BME280;4324;42.012;24.872;2023-05-23T09:29:19;98584.03;;;26.20;49.88
8573;BME280;4324;42.012;24.872;2023-05-23T09:31:47;98584.31;;;26.13;50.32
8573;BME280;4324;42.012;24.872;2023-05-23T09:34:14;98569.22;;;25.97;50.20
8573;BME280;4324;42.012;24.872;2023-05-23T09:36:42;98578.41;;;26.01;50.48
8573;BME280;4324;42.012;24.872;2023-05-23T09:39:11;98604.97;;;26.09;49.87
8573;BME280;4324;42.012;24.872;2023-05-23T09:41:38;98599.06;;;25.92;49.67
8573;BME280;4324;42.012;24.872;2023-05-23T09:44:07;98580.34;;;25.90;49.53
8573;BME280;4324;42.012;24.872;2023-05-23T09:46:40;98590.56;;;26.19;49.85
8573;BME280;4324;42.012;24.872;2023-05-23T09:49:17;98579.84;;;26.43;49.10
8573;BME280;4324;42.012;24.872;2023-05-23T09:51:56;98587.69;;;26.54;48.89
8573;BME280;4324;42.012;24.872;2023-05-23T09:54:23;98572.78;;;26.52;48.91
8573;BME280;4324;42.012;24.872;2023-05-23T09:56:52;98572.44;;;26.64;49.16
8573;BME280;4324;42.012;24.872;2023-05-23T09:59:21;98583.63;;;26.96;48.63
8573;BME280;4324;42.012;24.872;2023-05-23T10:01:51;98585.66;;;27.10;48.16
8573;BME280;4324;42.012;24.872;2023-05-23T10:04:21;98558.69;;;26.89;46.84
8573;BME280;4324;42.012;24.872;2023-05-23T10:06:50;98576.59;;;26.90;47.13
8573;BME280;4324;42.012;24.872;2023-05-23T10:09:20;98574.69;;;26.91;46.91
8573;BME280;4324;42.012;24.872;2023-05-23T10:15:12;98577.47;;;26.81;46.66
8573;BME280;4324;42.012;24.872;2023-05-23T10:18:01;98581.38;;;26.64;46.68
8573;BME280;4324;42.012;24.872;2023-05-23T10:20:30;98574.44;;;26.48;46.65
8573;BME280;4324;42.012;24.872;2023-05-23T10:22:59;98537.13;;;26.14;46.84
8573;BME280;4324;42.012;24.872;2023-05-23T10:25:27;98569.00;;;26.43;47.12
8573;BME280;4324;42.012;24.872;2023-05-23T10:27:55;98568.66;;;26.60;47.01
8573;BME280;4324;42.012;24.872;2023-05-23T10:30:24;98563.94;;;26.75;46.83
8573;BME280;4324;42.012;24.872;2023-05-23T10:32:52;98552.00;;;26.71;46.72
8573;BME280;4324;42.012;24.872;2023-05-23T10:35:24;98546.63;;;26.61;46.73
8573;BME280;4324;42.012;24.872;2023-05-23T10:38:03;98567.00;;;26.64;47.12
8573;BME280;4324;42.012;24.872;2023-05-23T10:40:43;98553.44;;;26.59;46.73
8573;BME280;4324;42.012;24.872;2023-05-23T10:43:17;98557.75;;;26.65;46.58
8573;BME280;4324;42.012;24.872;2023-05-23T10:45:46;98542.50;;;26.74;46.09
8573;BME280;4324;42.012;24.872;2023-05-23T10:48:23;98541.81;;;26.92;45.85
8573;BME280;4324;42.012;24.872;2023-05-23T10:51:05;98534.56;;;27.17;45.70
8573;BME280;4324;42.012;24.872;2023-05-23T10:53:36;98539.59;;;27.29;45.48
8573;BME280;4324;42.012;24.872;2023-05-23T10:56:07;98553.31;;;27.18;45.49
8573;BME280;4324;42.012;24.872;2023-05-23T10:58:35;98538.16;;;27.07;45.65
8573;BME280;4324;42.012;24.872;2023-05-23T11:01:05;98553.13;;;27.05;45.72
8573;BME280;4324;42.012;24.872;2023-05-23T11:03:34;98551.50;;;27.03;45.83
8573;BME280;4324;42.012;24.872;2023-05-23T11:06:01;98554.69;;;27.11;45.69
8573;BME280;4324;42.012;24.872;2023-05-23T11:08:38;98554.38;;;27.17;45.04
8573;BME280;4324;42.012;24.872;2023-05-23T11:11:07;98536.50;;;27.06;44.88
8573;BME280;4324;42.012;24.872;2023-05-23T11:13:54;98556.84;;;27.19;44.89
8573;BME280;4324;42.012;24.872;2023-05-23T11:16:26;98555.66;;;27.25;44.84
8573;BME280;4324;42.012;24.872;2023-05-23T11:19:19;98578.22;;;27.55;44.61
8573;BME280;4324;42.012;24.872;2023-05-23T11:21:49;98609.59;;;27.76;44.37
8573;BME280;4324;42.012;24.872;2023-05-23T11:24:19;98605.84;;;27.67;45.12
8573;BME280;4324;42.012;24.872;2023-05-23T11:26:53;98602.34;;;27.37;45.74
8573;BME280;4324;42.012;24.872;2023-05-23T11:29:25;98591.09;;;27.10;46.54
8573;BME280;4324;42.012;24.872;2023-05-23T11:31:53;98594.59;;;26.81;46.95
8573;BME280;4324;42.012;24.872;2023-05-23T11:34:20;98595.31;;;26.52;47.46
8573;BME280;4324;42.012;24.872;2023-05-23T11:36:52;98583.94;;;26.40;47.86
8573;BME280;4324;42.012;24.872;2023-05-23T11:39:21;98573.59;;;26.52;47.96
8573;BME280;4324;42.012;24.872;2023-05-23T11:41:58;98556.63;;;26.71;47.76
8573;BME280;4324;42.012;24.872;2023-05-23T11:44:27;98559.44;;;26.95;47.67
8573;BME280;4324;42.012;24.872;2023-05-23T11:46:58;98532.06;;;26.86;47.45
8573;BME280;4324;42.012;24.872;2023-05-23T11:49:27;98557.44;;;27.06;47.54
8573;BME280;4324;42.012;24.872;2023-05-23T11:51:54;98563.69;;;27.06;47.44
8573;BME280;4324;42.012;24.872;2023-05-23T11:54:23;98569.38;;;27.10;47.66
8573;BME280;4324;42.012;24.872;2023-05-23T11:56:51;98534.84;;;26.81;47.69
8573;BME280;4324;42.012;24.872;2023-05-23T11:59:18;98575.56;;;27.20;47.56
8573;BME280;4324;42.012;24.872;2023-05-23T12:01:46;98556.06;;;27.42;47.59
8573;BME280;4324;42.012;24.872;2023-05-23T12:04:13;98566.53;;;27.83;47.28
8573;BME280;4324;42.012;24.872;2023-05-23T12:06:40;98566.84;;;28.25;46.70
8573;BME280;4324;42.012;24.872;2023-05-23T12:09:10;98552.00;;;28.55;46.06
8573;BME280;4324;42.012;24.872;2023-05-23T12:11:40;98549.88;;;28.89;45.28
8573;BME280;4324;42.012;24.872;2023-05-23T12:14:08;98553.00;;;29.15;44.77
8573;BME280;4324;42.012;24.872;2023-05-23T12:16:35;98547.72;;;29.38;44.37
8573;BME280;4324;42.012;24.872;2023-05-23T12:19:03;98544.06;;;29.42;44.17
8573;BME280;4324;42.012;24.872;2023-05-23T12:21:41;98546.38;;;29.35;44.01
8573;BME280;4324;42.012;24.872;2023-05-23T12:24:14;98551.41;;;29.28;44.27
8573;BME280;4324;42.012;24.872;2023-05-23T12:26:53;98530.56;;;29.05;44.27
8573;BME280;4324;42.012;24.872;2023-05-23T12:29:27;98538.75;;;29.05;44.58
8573;BME280;4324;42.012;24.872;2023-05-23T12:31:56;98536.41;;;28.98;44.67
8573;BME280;4324;42.012;24.872;2023-05-23T12:34:23;98534.38;;;28.85;44.58
8573;BME280;4324;42.012;24.872;2023-05-23T12:36:53;98527.03;;;28.85;44.69
8573;BME280;4324;42.012;24.872;2023-05-23T12:39:23;98512.09;;;28.83;44.39
8573;BME280;4324;42.012;24.872;2023-05-23T12:41:53;98519.53;;;28.77;44.28
8573;BME280;4324;42.012;24.872;2023-05-23T12:44:23;98527.56;;;28.68;44.72
8573;BME280;4324;42.012;24.872;2023-05-23T12:46:50;98522.66;;;28.52;44.52
8573;BME280;4324;42.012;24.872;2023-05-23T12:49:16;98521.16;;;28.40;44.57
8573;BME280;4324;42.012;24.872;2023-05-23T12:51:43;98528.84;;;28.38;44.83
8573;BME280;4324;42.012;24.872;2023-05-23T12:54:10;98512.31;;;28.11;44.64
8573;BME280;4324;42.012;24.872;2023-05-23T12:56:37;98486.53;;;27.84;44.40
8573;BME280;4324;42.012;24.872;2023-05-23T12:59:06;98511.41;;;27.96;44.43
8573;BME280;4324;42.012;24.872;2023-05-23T13:01:33;98504.19;;;27.87;44.46
8573;BME280;4324;42.012;24.872;2023-05-23T13:04:00;98509.25;;;27.74;44.19
8573;BME280;4324;42.012;24.872;2023-05-23T13:06:27;98487.16;;;27.52;44.04
8573;BME280;4324;42.012;24.872;2023-05-23T13:08:54;98506.38;;;27.61;44.53
8573;BME280;4324;42.012;24.872;2023-05-23T13:11:21;98506.66;;;27.59;44.57
8573;BME280;4324;42.012;24.872;2023-05-23T13:13:49;98507.94;;;27.67;44.80
8573;BME280;4324;42.012;24.872;2023-05-23T13:16:18;98494.81;;;27.74;44.72
8573;BME280;4324;42.012;24.872;2023-05-23T13:18:45;98507.22;;;27.85;44.63
8573;BME280;4324;42.012;24.872;2023-05-23T13:21:12;98424.53;;;27.38;44.55